Time;durP1;ratioP1;P1;durP2;ratioP2;P2;SDS_P1;SDS_P2;PMS_P1;PMS_P2;Temp;Humidity;BMP_temperature;BMP_pressure;BME280_temperature;BME280_humidity;BME280_pressure;Samples;Min_cycle;Max_cycle;Signal;HPM_P1;HPM_P2
2021/06/25 00:02:03;;;;;;;15.73;13.47;;;;;;;;;;5024858;28;20263;-73
2021/06/25 00:04:28;;;;;;;18.87;14.13;;;;;;;;;;5022668;28;20718;-74
2021/06/25 00:06:53;;;;;;;15.67;13.27;;;;;;;;;;5029406;28;20790;-73
2021/06/25 00:09:18;;;;;;;18.37;13.40;;;;;;;;;;5026528;28;20178;-73
2021/06/25 00:11:43;;;;;;;18.93;14.50;;;;;;;;;;5014430;28;20174;-73
2021/06/25 00:14:09;;;;;;;18.57;13.60;;;;;;;;;;5023303;28;20198;-74
2021/06/25 00:16:34;;;;;;;18.77;15.10;;;;;;;;;;5024675;28;20185;-74
2021/06/25 00:19:00;;;;;;;18.17;14.43;;;;;;;;;;5022174;28;20309;-74
2021/06/25 00:21:26;;;;;;;21.87;15.73;;;;;;;;;;5025073;28;20186;-74
2021/06/25 00:23:51;;;;;;;19.83;16.07;;;;;;;;;;5028916;28;20223;-72
2021/06/25 00:26:16;;;;;;;20.33;16.70;;;;;;;;;;5019453;28;20210;-72
2021/06/25 00:28:41;;;;;;;22.37;16.93;;;;;;;;;;5025015;28;20166;-74
2021/06/25 00:31:07;;;;;;;22.07;16.33;;;;;;;;;;5025814;28;20189;-74
2021/06/25 00:33:32;;;;;;;21.77;17.00;;;;;;;;;;5031742;28;20205;-74
2021/06/25 00:35:57;;;;;;;23.43;16.60;;;;;;;;;;5021012;28;20706;-74
2021/06/25 00:38:22;;;;;;;22.90;16.80;;;;;;;;;;5029930;28;20273;-74
2021/06/25 00:40:47;;;;;;;25.67;19.43;;;;;;;;;;5028189;28;20214;-74
2021/06/25 00:43:13;;;;;;;26.90;17.77;;;;;;;;;;5014681;28;20301;-74
2021/06/25 00:45:38;;;;;;;28.10;17.73;;;;;;;;;;5015085;28;20171;-74
2021/06/25 00:48:03;;;;;;;20.60;16.53;;;;;;;;;;5030566;28;20558;-74
2021/06/25 00:50:30;;;;;;;25.47;17.93;;;;;;;;;;5027228;28;20554;-71
2021/06/25 00:52:56;;;;;;;26.13;17.83;;;;;;;;;;5030465;28;20684;-74
2021/06/25 00:55:22;;;;;;;21.63;16.63;;;;;;;;;;5019098;28;20209;-71
2021/06/25 00:57:47;;;;;;;23.43;16.77;;;;;;;;;;5021596;28;20206;-74
2021/06/25 01:00:13;;;;;;;26.03;18.17;;;;;;;;;;5018021;28;20221;-73
2021/06/25 01:02:38;;;;;;;24.57;18.23;;;;;;;;;;5024797;28;20205;-74
2021/06/25 01:05:04;;;;;;;22.93;17.43;;;;;;;;;;5022261;28;20195;-74
2021/06/25 01:07:30;;;;;;;22.93;15.27;;;;;;;;;;5028225;28;20191;-74
2021/06/25 01:09:55;;;;;;;24.00;17.37;;;;;;;;;;5023244;28;20186;-74
2021/06/25 01:12:21;;;;;;;24.67;18.07;;;;;;;;;;5024713;28;20214;-74
2021/06/25 01:14:46;;;;;;;24.20;18.77;;;;;;;;;;5027524;28;20230;-74
2021/06/25 01:17:30;;;;;;;28.97;19.67;;;;;;;;;;5022066;28;20178;-72
2021/06/25 01:19:56;;;;;;;28.33;20.13;;;;;;;;;;5029518;28;20182;-72
2021/06/25 01:22:25;;;;;;;27.17;19.40;;;;;;;;;;5028357;28;20209;-72
2021/06/25 01:24:50;;;;;;;26.57;19.93;;;;;;;;;;5028929;28;20226;-72
2021/06/25 01:27:15;;;;;;;27.07;20.93;;;;;;;;;;5022657;28;20215;-72
2021/06/25 01:29:40;;;;;;;30.87;20.40;;;;;;;;;;5030021;28;20182;-72
2021/06/25 01:32:05;;;;;;;23.17;16.87;;;;;;;;;;5029878;28;20174;-72
2021/06/25 01:34:31;;;;;;;24.07;17.57;;;;;;;;;;5028382;28;20725;-74
2021/06/25 01:36:56;;;;;;;22.47;18.23;;;;;;;;;;5028861;28;20716;-72
2021/06/25 01:39:22;;;;;;;21.30;16.47;;;;;;;;;;5026802;28;20224;-72
2021/06/25 01:41:47;;;;;;;22.43;15.80;;;;;;;;;;5028442;28;20694;-72
2021/06/25 01:44:12;;;;;;;24.07;17.73;;;;;;;;;;5030391;28;20267;-72
2021/06/25 01:46:37;;;;;;;25.67;18.50;;;;;;;;;;5029413;28;20261;-72
2021/06/25 01:49:02;;;;;;;22.27;16.90;;;;;;;;;;5027485;28;20174;-72
2021/06/25 01:51:28;;;;;;;23.30;17.20;;;;;;;;;;5025287;28;20527;-72
2021/06/25 01:53:53;;;;;;;27.97;19.17;;;;;;;;;;5027206;28;20702;-72
2021/06/25 01:56:18;;;;;;;22.47;17.70;;;;;;;;;;5037463;28;20179;-71
2021/06/25 01:58:43;;;;;;;24.20;17.23;;;;;;;;;;5052317;28;20244;-74
2021/06/25 02:01:14;;;;;;;24.00;17.77;;;;;;;;;;5048142;28;20167;-74
2021/06/25 02:03:40;;;;;;;23.30;16.67;;;;;;;;;;5050900;28;20216;-74
2021/06/25 02:06:06;;;;;;;30.67;20.10;;;;;;;;;;5052796;28;20175;-74
2021/06/25 02:08:32;;;;;;;32.10;19.23;;;;;;;;;;5052208;28;20200;-73
2021/06/25 02:10:58;;;;;;;26.73;19.20;;;;;;;;;;5052546;28;20238;-76
2021/06/25 02:13:23;;;;;;;28.57;19.43;;;;;;;;;;5050821;28;20238;-74
2021/06/25 02:15:48;;;;;;;25.23;18.47;;;;;;;;;;5046853;28;20186;-72
2021/06/25 02:18:13;;;;;;;24.97;17.80;;;;;;;;;;5046148;28;20186;-72
2021/06/25 02:20:38;;;;;;;25.07;17.13;;;;;;;;;;5029648;28;20195;-74
2021/06/25 02:23:04;;;;;;;26.57;18.70;;;;;;;;;;5027654;28;20270;-74
2021/06/25 02:25:29;;;;;;;26.47;18.87;;;;;;;;;;5030364;28;20197;-72
2021/06/25 02:27:55;;;;;;;30.10;21.23;;;;;;;;;;5014202;28;21439;-72
2021/06/25 02:30:20;;;;;;;30.37;20.63;;;;;;;;;;5011837;28;20220;-72
2021/06/25 02:32:45;;;;;;;31.67;21.17;;;;;;;;;;5012953;28;20274;-72
2021/06/25 02:35:11;;;;;;;26.53;19.23;;;;;;;;;;5012669;28;20202;-72
2021/06/25 02:37:36;;;;;;;26.53;19.63;;;;;;;;;;5013223;28;20208;-72
2021/06/25 02:40:02;;;;;;;30.60;20.83;;;;;;;;;;5012595;28;20236;-72
2021/06/25 02:42:27;;;;;;;27.93;20.07;;;;;;;;;;5014688;28;20226;-72
2021/06/25 02:44:53;;;;;;;26.73;18.77;;;;;;;;;;5014104;28;20195;-72
2021/06/25 02:47:18;;;;;;;31.50;22.63;;;;;;;;;;5013279;28;20192;-72
2021/06/25 02:49:43;;;;;;;28.80;21.37;;;;;;;;;;5010971;28;20183;-72
2021/06/25 02:52:08;;;;;;;32.30;22.33;;;;;;;;;;5018870;28;20600;-73
2021/06/25 02:54:35;;;;;;;29.70;21.37;;;;;;;;;;5019895;28;20304;-74
2021/06/25 02:57:01;;;;;;;33.27;22.47;;;;;;;;;;5017166;28;20183;-72
2021/06/25 02:59:26;;;;;;;28.00;20.80;;;;;;;;;;5015513;28;20186;-73
2021/06/25 03:01:51;;;;;;;25.30;19.83;;;;;;;;;;5013671;28;20293;-73
2021/06/25 03:04:16;;;;;;;23.70;18.67;;;;;;;;;;5016525;28;20688;-72
2021/06/25 03:06:43;;;;;;;24.40;18.53;;;;;;;;;;5014041;28;20179;-72
2021/06/25 03:09:08;;;;;;;23.33;18.43;;;;;;;;;;5014308;28;21103;-73
2021/06/25 03:11:34;;;;;;;24.93;19.63;;;;;;;;;;5018847;28;20179;-73
2021/06/25 03:13:59;;;;;;;27.07;18.17;;;;;;;;;;5012566;28;20186;-72
2021/06/25 03:16:24;;;;;;;23.60;18.63;;;;;;;;;;5012497;28;20262;-73
2021/06/25 03:18:49;;;;;;;24.47;17.93;;;;;;;;;;5014671;28;20201;-72
2021/06/25 03:21:17;;;;;;;23.13;18.57;;;;;;;;;;5016558;28;20699;-72
2021/06/25 03:23:42;;;;;;;21.37;18.03;;;;;;;;;;5017254;28;20234;-72
2021/06/25 03:26:07;;;;;;;22.83;17.17;;;;;;;;;;5015627;28;20274;-73
2021/06/25 03:28:33;;;;;;;22.20;18.07;;;;;;;;;;5012747;28;20196;-72
2021/06/25 03:30:58;;;;;;;23.10;17.30;;;;;;;;;;5012682;28;20663;-72
2021/06/25 03:33:23;;;;;;;23.73;19.20;;;;;;;;;;5013905;28;20211;-73
2021/06/25 03:35:48;;;;;;;24.97;17.67;;;;;;;;;;5012915;28;20185;-72
2021/06/25 03:38:13;;;;;;;23.47;18.10;;;;;;;;;;5019950;28;20757;-72
2021/06/25 03:40:39;;;;;;;24.30;17.70;;;;;;;;;;5016751;28;20179;-72
2021/06/25 03:43:04;;;;;;;18.93;15.83;;;;;;;;;;5015030;28;21165;-73
2021/06/25 03:45:29;;;;;;;24.90;17.27;;;;;;;;;;5016818;28;20209;-72
2021/06/25 03:47:55;;;;;;;22.80;17.97;;;;;;;;;;5015246;28;20178;-72
2021/06/25 03:50:20;;;;;;;22.53;17.60;;;;;;;;;;5014881;28;20253;-72
2021/06/25 03:52:45;;;;;;;23.30;17.10;;;;;;;;;;5015283;28;20554;-72
2021/06/25 03:55:11;;;;;;;21.27;17.37;;;;;;;;;;5014796;28;20228;-72
2021/06/25 03:57:37;;;;;;;22.80;18.00;;;;;;;;;;5013618;28;20192;-72
2021/06/25 04:00:04;;;;;;;22.93;18.20;;;;;;;;;;5012002;28;20190;-74
2021/06/25 04:02:29;;;;;;;22.43;16.73;;;;;;;;;;5019464;28;20210;-72
2021/06/25 04:04:54;;;;;;;26.07;17.53;;;;;;;;;;5031031;28;20738;-73
2021/06/25 04:07:19;;;;;;;21.07;16.83;;;;;;;;;;5012093;28;20178;-73
2021/06/25 04:09:45;;;;;;;23.00;16.47;;;;;;;;;;5027675;28;20175;-72
2021/06/25 04:12:10;;;;;;;21.10;16.30;;;;;;;;;;5010130;28;20175;-72
2021/06/25 04:14:35;;;;;;;21.00;16.70;;;;;;;;;;5011973;28;20648;-73
2021/06/25 04:17:00;;;;;;;20.33;16.03;;;;;;;;;;5018632;28;20178;-72
2021/06/25 04:19:25;;;;;;;18.67;16.40;;;;;;;;;;5014486;28;20305;-72
2021/06/25 04:21:51;;;;;;;19.50;15.67;;;;;;;;;;5014654;28;20213;-72
2021/06/25 04:24:16;;;;;;;20.27;15.63;;;;;;;;;;5013650;28;20567;-72
2021/06/25 04:26:43;;;;;;;23.60;15.87;;;;;;;;;;5013228;28;20317;-72
2021/06/25 04:29:10;;;;;;;19.23;15.97;;;;;;;;;;5015047;28;20512;-72
2021/06/25 04:31:36;;;;;;;19.87;16.10;;;;;;;;;;5014074;28;20178;-72
2021/06/25 04:34:01;;;;;;;21.90;15.43;;;;;;;;;;5014234;28;20193;-72
2021/06/25 04:36:26;;;;;;;21.13;15.90;;;;;;;;;;5013668;28;22303;-72
2021/06/25 04:38:52;;;;;;;22.60;15.60;;;;;;;;;;5011962;28;20178;-72
2021/06/25 04:41:17;;;;;;;16.77;14.67;;;;;;;;;;5014231;28;20205;-73
2021/06/25 04:43:42;;;;;;;20.00;16.63;;;;;;;;;;5013456;28;20304;-72
2021/06/25 04:46:07;;;;;;;17.30;15.07;;;;;;;;;;5011338;28;20281;-72
2021/06/25 04:48:34;;;;;;;21.70;15.83;;;;;;;;;;5012305;28;20209;-72
2021/06/25 04:51:00;;;;;;;19.53;16.43;;;;;;;;;;5011859;28;20479;-72
2021/06/25 04:53:25;;;;;;;20.20;16.23;;;;;;;;;;5012311;28;20209;-72
2021/06/25 04:55:51;;;;;;;18.53;15.13;;;;;;;;;;5017807;28;20195;-72
2021/06/25 04:58:16;;;;;;;17.70;14.97;;;;;;;;;;5014082;28;20194;-72
2021/06/25 05:00:42;;;;;;;18.40;14.93;;;;;;;;;;5014576;28;20186;-72
2021/06/25 05:03:08;;;;;;;20.63;16.10;;;;;;;;;;5015692;28;20255;-72
2021/06/25 05:05:33;;;;;;;19.87;14.57;;;;;;;;;;5016434;28;20816;-72
2021/06/25 05:07:59;;;;;;;18.57;14.97;;;;;;;;;;5015125;28;20182;-74
2021/06/25 05:10:24;;;;;;;16.58;14.30;;;;;;;;;;5017289;28;20170;-72
2021/06/25 05:12:49;;;;;;;17.75;15.38;;;;;;;;;;5012025;28;20189;-72
2021/06/25 05:15:14;;;;;;;20.20;15.77;;;;;;;;;;5012169;28;20264;-72
2021/06/25 05:17:40;;;;;;;18.70;14.30;;;;;;;;;;5010266;28;20749;-71
2021/06/25 05:20:06;;;;;;;19.48;15.00;;;;;;;;;;5013007;28;20707;-72
2021/06/25 05:22:31;;;;;;;19.50;16.05;;;;;;;;;;5013060;28;20620;-72
2021/06/25 05:24:56;;;;;;;20.20;15.65;;;;;;;;;;5016106;28;20200;-72
2021/06/25 05:27:22;;;;;;;18.35;14.00;;;;;;;;;;5017491;28;20229;-72
2021/06/25 05:29:47;;;;;;;18.45;15.30;;;;;;;;;;5020494;28;20268;-72
2021/06/25 05:32:12;;;;;;;19.13;15.80;;;;;;;;;;5012992;28;20213;-72
2021/06/25 05:34:37;;;;;;;19.52;16.17;;;;;;;;;;5010037;28;20194;-72
2021/06/25 05:37:02;;;;;;;18.10;15.02;;;;;;;;;;5014389;28;20671;-71
2021/06/25 05:39:28;;;;;;;18.15;15.32;;;;;;;;;;5010478;28;20556;-73
2021/06/25 05:41:53;;;;;;;22.42;16.73;;;;;;;;;;5012261;28;20696;-72
2021/06/25 05:44:18;;;;;;;22.17;17.67;;;;;;;;;;5013148;28;20292;-72
2021/06/25 05:46:43;;;;;;;21.27;15.90;;;;;;;;;;5011117;28;20244;-72
2021/06/25 05:49:08;;;;;;;20.60;17.83;;;;;;;;;;5011289;28;20203;-72
2021/06/25 05:51:34;;;;;;;18.35;16.30;;;;;;;;;;5011283;28;20277;-72
2021/06/25 05:53:59;;;;;;;23.40;16.23;;;;;;;;;;5012972;28;20267;-72
2021/06/25 05:56:24;;;;;;;19.40;16.77;;;;;;;;;;5016649;28;20244;-72
2021/06/25 05:58:50;;;;;;;21.98;17.58;;;;;;;;;;5011861;28;20174;-72
2021/06/25 06:01:16;;;;;;;24.58;17.90;;;;;;;;;;5014023;28;20209;-71
2021/06/25 06:03:41;;;;;;;22.15;17.60;;;;;;;;;;5013400;28;20338;-72
2021/06/25 06:06:06;;;;;;;22.40;18.20;;;;;;;;;;5014424;28;21869;-72
2021/06/25 06:08:31;;;;;;;20.23;17.65;;;;;;;;;;5010153;28;20273;-72
2021/06/25 06:10:57;;;;;;;21.63;18.20;;;;;;;;;;5011582;28;20188;-72
2021/06/25 06:13:22;;;;;;;23.73;18.60;;;;;;;;;;5009546;28;20213;-72
2021/06/25 06:15:47;;;;;;;21.92;18.42;;;;;;;;;;5008883;28;20671;-73
2021/06/25 06:18:22;;;;;;;24.75;19.52;;;;;;;;;;5020053;28;20189;-71
2021/06/25 06:20:47;;;;;;;23.33;19.80;;;;;;;;;;5037974;28;20249;-71
2021/06/25 06:31:32;;;;;;;26.00;19.88;;;;;;;;;;5042579;28;20196;-72
2021/06/25 06:33:59;;;;;;;25.02;20.00;;;;;;;;;;5045428;28;20249;-72
2021/06/25 06:36:28;;;;;;;23.95;20.25;;;;;;;;;;5042262;28;20170;-71
2021/06/25 06:38:53;;;;;;;25.45;20.10;;;;;;;;;;5041252;28;20178;-72
2021/06/25 06:41:19;;;;;;;28.17;22.40;;;;;;;;;;5046645;28;20257;-72
2021/06/25 06:43:46;;;;;;;24.48;21.02;;;;;;;;;;5038120;28;20213;-72
2021/06/25 06:46:11;;;;;;;25.38;21.33;;;;;;;;;;5018221;28;20337;-72
2021/06/25 06:48:38;;;;;;;28.85;22.77;;;;;;;;;;5014109;28;20182;-71
2021/06/25 06:51:04;;;;;;;29.60;22.73;;;;;;;;;;5014062;28;20182;-71
2021/06/25 06:53:29;;;;;;;26.83;21.20;;;;;;;;;;5015614;28;20750;-73
2021/06/25 06:55:54;;;;;;;26.98;22.83;;;;;;;;;;5017477;28;20182;-73
2021/06/25 06:58:19;;;;;;;28.20;22.75;;;;;;;;;;5015905;28;20188;-71
2021/06/25 07:00:44;;;;;;;28.63;21.83;;;;;;;;;;5012700;28;20189;-72
2021/06/25 07:03:10;;;;;;;28.35;22.50;;;;;;;;;;5014712;28;21225;-72
2021/06/25 07:05:35;;;;;;;29.38;22.67;;;;;;;;;;5019542;28;20174;-72
2021/06/25 07:08:00;;;;;;;27.95;22.63;;;;;;;;;;5014843;28;20809;-71
2021/06/25 07:10:25;;;;;;;29.40;22.53;;;;;;;;;;5013253;28;20846;-73
2021/06/25 07:12:50;;;;;;;29.08;22.38;;;;;;;;;;5019362;28;20475;-73
2021/06/25 07:15:16;;;;;;;29.35;23.52;;;;;;;;;;5012530;28;20548;-73
2021/06/25 07:17:41;;;;;;;26.33;22.38;;;;;;;;;;5015156;28;20193;-73
2021/06/25 07:20:07;;;;;;;24.80;22.10;;;;;;;;;;5014029;28;20265;-72
2021/06/25 07:22:32;;;;;;;24.52;21.83;;;;;;;;;;5011894;28;20973;-72
2021/06/25 07:24:57;;;;;;;26.17;21.45;;;;;;;;;;5017694;28;20203;-72
2021/06/25 07:27:23;;;;;;;26.17;22.20;;;;;;;;;;5013427;28;20686;-72
2021/06/25 07:29:48;;;;;;;27.42;22.38;;;;;;;;;;5012667;28;20731;-72
2021/06/25 07:32:13;;;;;;;28.55;22.67;;;;;;;;;;5015548;28;20281;-73
2021/06/25 07:34:38;;;;;;;26.50;21.57;;;;;;;;;;5014133;28;20213;-72
2021/06/25 07:37:03;;;;;;;33.88;23.30;;;;;;;;;;5016259;28;20442;-72
2021/06/25 07:39:29;;;;;;;25.58;19.95;;;;;;;;;;5010061;28;20293;-72
2021/06/25 07:41:54;;;;;;;23.40;18.95;;;;;;;;;;5015816;28;20203;-72
2021/06/25 07:44:19;;;;;;;29.50;21.13;;;;;;;;;;5013583;28;20225;-72
2021/06/25 07:46:44;;;;;;;25.23;20.77;;;;;;;;;;5015168;28;20214;-73
2021/06/25 07:49:09;;;;;;;22.95;20.02;;;;;;;;;;5013048;28;20455;-72
2021/06/25 07:51:35;;;;;;;26.63;20.27;;;;;;;;;;5010036;28;20238;-73
2021/06/25 07:54:00;;;;;;;28.23;21.40;;;;;;;;;;5014745;28;20248;-71
2021/06/25 07:56:25;;;;;;;22.65;19.15;;;;;;;;;;5012828;28;20554;-70
2021/06/25 07:58:50;;;;;;;24.48;19.73;;;;;;;;;;5015221;28;20292;-71
2021/06/25 08:01:16;;;;;;;26.23;20.92;;;;;;;;;;5017535;28;20186;-71
2021/06/25 08:03:41;;;;;;;25.67;19.80;;;;;;;;;;5017161;28;20617;-71
2021/06/25 08:06:06;;;;;;;23.93;20.30;;;;;;;;;;5015051;28;20190;-71
2021/06/25 08:08:32;;;;;;;24.30;19.17;;;;;;;;;;5012600;28;20431;-74
2021/06/25 08:10:57;;;;;;;23.60;19.98;;;;;;;;;;5016968;28;20252;-71
2021/06/25 08:13:23;;;;;;;23.90;20.07;;;;;;;;;;5012745;28;20182;-71
2021/06/25 08:15:51;;;;;;;23.17;19.73;;;;;;;;;;5016708;28;20427;-72
2021/06/25 08:18:17;;;;;;;26.48;20.20;;;;;;;;;;5015968;28;20191;-71
2021/06/25 08:20:42;;;;;;;22.88;20.40;;;;;;;;;;5017617;28;20205;-71
2021/06/25 08:23:07;;;;;;;22.60;19.25;;;;;;;;;;5029338;28;20248;-71
2021/06/25 08:25:32;;;;;;;23.33;18.90;;;;;;;;;;5018449;28;20259;-70
2021/06/25 08:27:58;;;;;;;24.57;19.30;;;;;;;;;;5014712;28;21056;-71
2021/06/25 08:30:25;;;;;;;24.40;18.52;;;;;;;;;;5014750;28;20458;-71
2021/06/25 08:32:50;;;;;;;20.50;16.77;;;;;;;;;;5013575;28;20175;-72
2021/06/25 08:35:16;;;;;;;23.55;18.05;;;;;;;;;;5011539;28;20217;-71
2021/06/25 08:37:41;;;;;;;22.58;18.45;;;;;;;;;;5008848;28;20572;-71
2021/06/25 08:40:08;;;;;;;21.97;16.70;;;;;;;;;;5010737;28;20191;-71
2021/06/25 08:42:35;;;;;;;22.20;17.25;;;;;;;;;;5020610;28;20458;-71
2021/06/25 08:45:00;;;;;;;21.98;17.63;;;;;;;;;;5010753;28;20620;-71
2021/06/25 08:47:26;;;;;;;17.88;15.90;;;;;;;;;;5010847;28;20186;-72
2021/06/25 08:49:51;;;;;;;20.55;17.52;;;;;;;;;;5010675;28;20175;-71
2021/06/25 08:52:17;;;;;;;20.65;17.15;;;;;;;;;;5014766;28;20193;-71
2021/06/25 08:54:43;;;;;;;21.20;18.00;;;;;;;;;;5015268;28;20202;-71
2021/06/25 08:57:08;;;;;;;21.17;17.83;;;;;;;;;;5012616;28;20483;-72
2021/06/25 08:59:34;;;;;;;20.70;18.15;;;;;;;;;;5011120;28;20209;-71
2021/06/25 09:01:59;;;;;;;22.85;17.13;;;;;;;;;;5011932;28;20186;-72
2021/06/25 09:04:38;;;;;;;23.88;18.80;;;;;;;;;;5005556;28;20208;-72
2021/06/25 09:07:05;;;;;;;24.67;16.55;;;;;;;;;;5008295;28;20205;-72
2021/06/25 09:09:39;;;;;;;21.55;17.80;;;;;;;;;;5008715;28;20676;-73
2021/06/25 09:12:07;;;;;;;22.13;16.55;;;;;;;;;;5015164;28;20185;-72
2021/06/25 09:14:51;;;;;;;22.10;17.38;;;;;;;;;;5012397;28;20310;-72
2021/06/25 09:17:16;;;;;;;18.70;16.02;;;;;;;;;;5014674;28;20232;-72
2021/06/25 09:19:41;;;;;;;19.93;16.70;;;;;;;;;;5012252;28;20249;-72
2021/06/25 09:22:06;;;;;;;18.13;15.60;;;;;;;;;;5017879;28;20610;-72
2021/06/25 09:24:31;;;;;;;21.60;16.97;;;;;;;;;;5012044;28;20443;-73
2021/06/25 09:26:58;;;;;;;22.03;17.30;;;;;;;;;;5017473;28;20928;-72
2021/06/25 09:29:24;;;;;;;19.52;16.38;;;;;;;;;;5011606;28;20503;-72
2021/06/25 09:31:59;;;;;;;20.48;16.90;;;;;;;;;;5013778;28;20262;-72
2021/06/25 09:34:34;;;;;;;18.08;15.98;;;;;;;;;;5005181;28;20208;-73
2021/06/25 09:37:03;;;;;;;18.65;14.60;;;;;;;;;;5013973;28;20536;-72
2021/06/25 09:39:28;;;;;;;19.48;15.95;;;;;;;;;;5009545;28;20484;-72
2021/06/25 09:41:53;;;;;;;18.43;16.07;;;;;;;;;;5018552;28;22027;-72
2021/06/25 09:44:19;;;;;;;19.30;16.10;;;;;;;;;;5014094;28;20513;-72
2021/06/25 09:46:45;;;;;;;17.40;15.50;;;;;;;;;;5011070;28;20615;-73
2021/06/25 09:49:11;;;;;;;20.27;16.35;;;;;;;;;;5010543;28;20190;-73
2021/06/25 09:51:37;;;;;;;21.17;15.95;;;;;;;;;;5010625;28;20267;-73
2021/06/25 09:54:06;;;;;;;19.83;16.65;;;;;;;;;;5010899;28;20227;-72
2021/06/25 09:56:33;;;;;;;20.70;15.85;;;;;;;;;;5011768;28;20190;-73
2021/06/25 09:59:24;;;;;;;17.85;15.82;;;;;;;;;;5012741;28;20182;-72
2021/06/25 10:01:49;;;;;;;21.30;16.77;;;;;;;;;;5018666;28;20475;-72
2021/06/25 10:04:15;;;;;;;19.27;16.52;;;;;;;;;;5015127;28;20588;-72
2021/06/25 10:06:40;;;;;;;22.50;18.27;;;;;;;;;;5020929;28;20652;-72
2021/06/25 10:09:06;;;;;;;18.90;16.83;;;;;;;;;;5015101;28;20431;-72
2021/06/25 10:11:32;;;;;;;19.13;15.32;;;;;;;;;;5018627;28;20878;-72
2021/06/25 10:13:58;;;;;;;18.35;16.45;;;;;;;;;;5014890;28;20264;-72
2021/06/25 10:16:23;;;;;;;18.02;16.13;;;;;;;;;;5012822;28;20182;-72
2021/06/25 10:18:50;;;;;;;19.92;16.88;;;;;;;;;;5014594;28;20181;-71
2021/06/25 10:21:16;;;;;;;21.90;16.52;;;;;;;;;;5014661;28;20691;-71
2021/06/25 10:23:49;;;;;;;18.95;16.70;;;;;;;;;;5015338;28;20688;-71
2021/06/25 10:26:16;;;;;;;20.02;17.92;;;;;;;;;;5016009;28;20193;-70
2021/06/25 10:28:42;;;;;;;22.45;20.10;;;;;;;;;;5015194;28;20291;-71
2021/06/25 10:31:08;;;;;;;22.30;19.30;;;;;;;;;;5015324;28;21739;-71
2021/06/25 10:33:35;;;;;;;25.45;22.83;;;;;;;;;;5013012;28;20765;-71
2021/06/25 10:36:02;;;;;;;27.90;25.10;;;;;;;;;;5014814;28;20195;-72
2021/06/25 10:38:27;;;;;;;26.17;23.40;;;;;;;;;;5011109;28;20178;-72
2021/06/25 10:40:54;;;;;;;27.77;24.95;;;;;;;;;;5016516;28;20225;-72
2021/06/25 10:43:43;;;;;;;29.10;24.15;;;;;;;;;;5014055;28;20575;-72
2021/06/25 10:46:30;;;;;;;25.58;22.98;;;;;;;;;;5012999;28;20221;-71
2021/06/25 10:49:00;;;;;;;25.60;22.90;;;;;;;;;;5012682;28;20999;-70
2021/06/25 10:51:32;;;;;;;23.75;21.05;;;;;;;;;;5013374;28;20183;-71
2021/06/25 10:54:03;;;;;;;24.58;21.98;;;;;;;;;;5015850;28;20286;-71
2021/06/25 10:56:28;;;;;;;23.73;21.08;;;;;;;;;;5014901;28;20187;-70
2021/06/25 10:59:12;;;;;;;25.20;21.77;;;;;;;;;;5015918;28;20179;-72
2021/06/25 11:01:48;;;;;;;21.90;19.52;;;;;;;;;;5014735;28;20424;-72
2021/06/25 11:04:31;;;;;;;22.70;20.17;;;;;;;;;;5015110;28;20221;-71
2021/06/25 11:06:58;;;;;;;25.75;18.38;;;;;;;;;;5042345;28;20186;-71
2021/06/25 11:09:24;;;;;;;26.02;18.85;;;;;;;;;;5040706;28;20178;-71
2021/06/25 11:12:10;;;;;;;25.65;19.60;;;;;;;;;;5043839;28;20182;-71
2021/06/25 11:14:35;;;;;;;21.65;17.77;;;;;;;;;;5041346;28;20204;-71
2021/06/25 11:17:00;;;;;;;25.25;18.80;;;;;;;;;;5044487;28;20187;-71
2021/06/25 11:19:33;;;;;;;25.38;17.85;;;;;;;;;;5040206;28;20512;-71
2021/06/25 11:21:58;;;;;;;24.58;17.85;;;;;;;;;;5041009;28;20186;-72
2021/06/25 11:24:42;;;;;;;21.95;16.70;;;;;;;;;;5046592;28;20262;-71
2021/06/25 11:27:07;;;;;;;24.77;18.88;;;;;;;;;;5043121;28;20202;-71
2021/06/25 11:29:46;;;;;;;24.88;19.30;;;;;;;;;;5041843;28;20275;-72
2021/06/25 11:32:12;;;;;;;21.90;18.05;;;;;;;;;;5019853;28;20275;-72
2021/06/25 11:34:37;;;;;;;21.15;17.83;;;;;;;;;;5020375;28;20238;-70
2021/06/25 11:37:02;;;;;;;23.03;18.63;;;;;;;;;;5017875;28;20273;-72
2021/06/25 11:39:29;;;;;;;20.83;17.80;;;;;;;;;;5013957;28;20427;-72
2021/06/25 11:42:01;;;;;;;21.27;17.75;;;;;;;;;;5020577;28;20201;-71
2021/06/25 11:44:40;;;;;;;20.35;18.25;;;;;;;;;;5013304;28;20191;-72
2021/06/25 11:47:13;;;;;;;23.55;20.25;;;;;;;;;;5012744;28;20192;-72
2021/06/25 11:49:59;;;;;;;22.25;19.88;;;;;;;;;;5014888;28;20193;-70
2021/06/25 11:52:28;;;;;;;25.17;22.02;;;;;;;;;;5014365;28;20190;-71
2021/06/25 11:54:57;;;;;;;25.75;21.92;;;;;;;;;;5014978;28;20988;-72
2021/06/25 11:57:23;;;;;;;30.63;22.52;;;;;;;;;;5017003;28;20247;-71
2021/06/25 11:59:58;;;;;;;32.13;23.52;;;;;;;;;;5012101;28;20186;-72
2021/06/25 12:02:24;;;;;;;33.72;26.30;;;;;;;;;;5013735;28;20197;-72
2021/06/25 12:04:49;;;;;;;34.88;27.08;;;;;;;;;;5011733;28;20264;-73
2021/06/25 12:07:15;;;;;;;33.17;25.45;;;;;;;;;;5019052;28;20178;-72
2021/06/25 12:09:40;;;;;;;36.83;26.38;;;;;;;;;;5013963;28;20189;-72
2021/06/25 12:12:06;;;;;;;35.72;26.33;;;;;;;;;;5018123;28;20182;-72
2021/06/25 12:14:41;;;;;;;30.65;24.92;;;;;;;;;;5012839;28;21057;-72
2021/06/25 12:17:06;;;;;;;25.63;22.33;;;;;;;;;;5015670;28;20181;-71
2021/06/25 12:19:31;;;;;;;28.25;22.40;;;;;;;;;;5013748;28;20661;-72
2021/06/25 12:22:03;;;;;;;29.58;24.05;;;;;;;;;;5014975;28;20731;-72
2021/06/25 12:24:28;;;;;;;24.95;21.95;;;;;;;;;;5014330;28;20202;-71
2021/06/25 12:26:53;;;;;;;38.50;24.47;;;;;;;;;;5012489;28;20633;-72
2021/06/25 12:29:18;;;;;;;30.35;22.10;;;;;;;;;;5011907;28;20432;-71
2021/06/25 12:31:43;;;;;;;35.63;22.65;;;;;;;;;;5014962;28;20270;-71
2021/06/25 12:34:11;;;;;;;34.03;23.00;;;;;;;;;;5011462;28;20308;-73
2021/06/25 12:36:37;;;;;;;27.80;20.83;;;;;;;;;;5013181;28;20724;-73
2021/06/25 12:39:05;;;;;;;31.15;20.77;;;;;;;;;;5011110;28;20182;-73
2021/06/25 12:41:30;;;;;;;28.02;18.10;;;;;;;;;;5017152;28;20605;-74
2021/06/25 12:43:56;;;;;;;24.65;18.35;;;;;;;;;;5014866;28;20267;-74
2021/06/25 12:46:22;;;;;;;25.50;18.30;;;;;;;;;;5012999;28;20239;-73
2021/06/25 12:48:58;;;;;;;23.55;17.23;;;;;;;;;;5012427;28;20201;-71
2021/06/25 12:51:28;;;;;;;22.80;16.65;;;;;;;;;;5016355;28;20181;-71
2021/06/25 12:53:57;;;;;;;20.75;16.33;;;;;;;;;;5011598;28;20229;-71
2021/06/25 12:56:23;;;;;;;18.75;15.55;;;;;;;;;;5010957;28;20410;-71
2021/06/25 12:58:50;;;;;;;20.17;16.05;;;;;;;;;;5017389;28;20196;-71
2021/06/25 13:01:16;;;;;;;19.17;14.77;;;;;;;;;;5016534;28;20182;-72
2021/06/25 13:03:45;;;;;;;17.35;13.75;;;;;;;;;;5013412;28;20211;-71
2021/06/25 13:06:29;;;;;;;20.13;15.25;;;;;;;;;;5012413;28;20182;-71
2021/06/25 13:08:55;;;;;;;19.02;14.52;;;;;;;;;;5010061;28;20195;-72
2021/06/25 13:11:22;;;;;;;14.98;13.30;;;;;;;;;;5014064;28;20178;-71
2021/06/25 13:13:48;;;;;;;13.25;11.32;;;;;;;;;;5013006;28;20221;-71
2021/06/25 13:16:14;;;;;;;13.10;11.73;;;;;;;;;;5015474;28;20182;-72
2021/06/25 13:18:41;;;;;;;14.90;11.60;;;;;;;;;;5010727;28;20191;-72
2021/06/25 13:21:15;;;;;;;12.68;10.85;;;;;;;;;;5011735;28;20197;-72
2021/06/25 13:23:42;;;;;;;13.32;10.20;;;;;;;;;;5012049;28;20238;-72
2021/06/25 13:26:14;;;;;;;13.05;10.57;;;;;;;;;;5012700;28;20186;-72
2021/06/25 13:29:00;;;;;;;13.30;10.75;;;;;;;;;;5013872;28;20750;-72
2021/06/25 13:31:25;;;;;;;12.52;10.60;;;;;;;;;;5013426;28;20187;-72
2021/06/25 13:33:51;;;;;;;15.60;10.60;;;;;;;;;;5012960;28;20201;-72
2021/06/25 13:36:16;;;;;;;12.15;10.95;;;;;;;;;;5014920;28;20193;-73
2021/06/25 13:38:41;;;;;;;13.02;11.25;;;;;;;;;;5015636;28;20182;-72
2021/06/25 13:41:20;;;;;;;14.23;10.73;;;;;;;;;;5013296;28;20185;-72
2021/06/25 13:43:57;;;;;;;14.10;11.18;;;;;;;;;;5011302;28;22164;-72
2021/06/25 13:46:25;;;;;;;13.93;11.05;;;;;;;;;;5012476;28;20185;-72
2021/06/25 13:49:01;;;;;;;13.45;9.93;;;;;;;;;;5011244;28;20171;-72
2021/06/25 13:51:26;;;;;;;15.20;12.63;;;;;;;;;;5012958;28;20269;-72
2021/06/25 13:53:51;;;;;;;15.43;12.43;;;;;;;;;;5012775;28;20380;-72
2021/06/25 13:56:18;;;;;;;13.27;11.63;;;;;;;;;;5015195;28;20889;-72
2021/06/25 13:58:50;;;;;;;15.35;11.40;;;;;;;;;;5012826;28;20692;-72
2021/06/25 14:01:18;;;;;;;13.23;11.48;;;;;;;;;;5013412;28;20566;-72
2021/06/25 14:03:51;;;;;;;14.30;11.80;;;;;;;;;;5010848;28;20742;-72
2021/06/25 14:06:16;;;;;;;12.07;10.43;;;;;;;;;;5014812;28;20587;-72
2021/06/25 14:08:42;;;;;;;11.88;10.55;;;;;;;;;;5013593;28;20249;-72
2021/06/25 14:11:09;;;;;;;13.18;11.82;;;;;;;;;;5010790;28;20171;-72
2021/06/25 14:13:35;;;;;;;13.30;11.43;;;;;;;;;;5013230;28;20216;-72
2021/06/25 14:16:11;;;;;;;14.18;11.13;;;;;;;;;;5016373;28;20217;-72
2021/06/25 14:18:36;;;;;;;14.43;12.27;;;;;;;;;;5010128;28;20296;-72
2021/06/25 14:21:01;;;;;;;15.47;12.67;;;;;;;;;;5016576;28;20178;-73
2021/06/25 14:23:26;;;;;;;15.80;12.77;;;;;;;;;;5014424;28;20466;-74